sensor_id;sensor_type;location;lat;lon;timestamp;P1;durP1;ratioP1;P2;durP2;ratioP2
35326;SDS011;21436;52.348;20.928;2022-08-14T00:02:14;19.38;;;14.90;;
35326;SDS011;21436;52.348;20.928;2022-08-14T00:04:42;20.13;;;14.68;;
35326;SDS011;21436;52.348;20.928;2022-08-14T00:07:11;20.23;;;14.88;;
35326;SDS011;21436;52.348;20.928;2022-08-14T00:09:41;20.05;;;15.18;;
35326;SDS011;21436;52.348;20.928;2022-08-14T00:12:32;18.15;;;14.00;;
35326;SDS011;21436;52.348;20.928;2022-08-14T00:15:07;19.77;;;13.48;;
35326;SDS011;21436;52.348;20.928;2022-08-14T00:17:42;19.98;;;11.70;;
35326;SDS011;21436;52.348;20.928;2022-08-14T00:20:19;14.52;;;11.55;;
35326;SDS011;21436;52.348;20.928;2022-08-14T00:22:56;18.00;;;10.65;;
35326;SDS011;21436;52.348;20.928;2022-08-14T00:25:37;19.10;;;11.23;;
35326;SDS011;21436;52.348;20.928;2022-08-14T00:28:09;12.85;;;10.07;;
35326;SDS011;21436;52.348;20.928;2022-08-14T00:30:44;11.73;;;10.07;;
35326;SDS011;21436;52.348;20.928;2022-08-14T00:33:13;16.25;;;9.70;;
35326;SDS011;21436;52.348;20.928;2022-08-14T00:35:43;11.77;;;9.70;;
35326;SDS011;21436;52.348;20.928;2022-08-14T00:38:32;13.15;;;9.68;;
35326;SDS011;21436;52.348;20.928;2022-08-14T00:41:02;13.95;;;9.00;;
35326;SDS011;21436;52.348;20.928;2022-08-14T00:43:31;14.23;;;9.77;;
35326;SDS011;21436;52.348;20.928;2022-08-14T00:46:03;13.35;;;8.95;;
35326;SDS011;21436;52.348;20.928;2022-08-14T00:48:55;10.13;;;9.02;;
35326;SDS011;21436;52.348;20.928;2022-08-14T00:51:24;13.20;;;9.63;;
35326;SDS011;21436;52.348;20.928;2022-08-14T00:54:05;11.00;;;8.48;;
35326;SDS011;21436;52.348;20.928;2022-08-14T00:56:51;11.55;;;8.82;;
35326;SDS011;21436;52.348;20.928;2022-08-14T00:59:25;15.55;;;8.98;;
35326;SDS011;21436;52.348;20.928;2022-08-14T01:01:56;10.35;;;8.40;;
35326;SDS011;21436;52.348;20.928;2022-08-14T01:04:26;15.30;;;9.77;;
35326;SDS011;21436;52.348;20.928;2022-08-14T01:07:15;12.13;;;9.13;;
35326;SDS011;21436;52.348;20.928;2022-08-14T01:09:54;15.43;;;9.13;;
35326;SDS011;21436;52.348;20.928;2022-08-14T01:12:25;13.63;;;9.25;;
35326;SDS011;21436;52.348;20.928;2022-08-14T01:14:57;17.67;;;9.10;;
35326;SDS011;21436;52.348;20.928;2022-08-14T01:17:28;10.73;;;8.98;;
35326;SDS011;21436;52.348;20.928;2022-08-14T01:20:18;12.07;;;8.55;;
35326;SDS011;21436;52.348;20.928;2022-08-14T01:23:12;16.58;;;8.95;;
35326;SDS011;21436;52.348;20.928;2022-08-14T01:25:46;10.38;;;8.90;;
35326;SDS011;21436;52.348;20.928;2022-08-14T01:28:18;13.52;;;8.70;;
35326;SDS011;21436;52.348;20.928;2022-08-14T01:31:15;11.13;;;8.27;;
35326;SDS011;21436;52.348;20.928;2022-08-14T01:33:47;13.65;;;8.57;;
35326;SDS011;21436;52.348;20.928;2022-08-14T01:36:37;12.48;;;9.35;;
35326;SDS011;21436;52.348;20.928;2022-08-14T01:39:17;16.77;;;8.35;;
35326;SDS011;21436;52.348;20.928;2022-08-14T01:41:46;11.70;;;8.32;;
35326;SDS011;21436;52.348;20.928;2022-08-14T01:44:24;13.15;;;7.93;;
35326;SDS011;21436;52.348;20.928;2022-08-14T01:47:02;13.85;;;6.75;;
35326;SDS011;21436;52.348;20.928;2022-08-14T01:49:52;12.48;;;7.35;;
35326;SDS011;21436;52.348;20.928;2022-08-14T01:52:34;10.95;;;7.20;;
35326;SDS011;21436;52.348;20.928;2022-08-14T01:55:24;15.82;;;7.30;;
35326;SDS011;21436;52.348;20.928;2022-08-14T01:57:57;13.07;;;7.43;;
35326;SDS011;21436;52.348;20.928;2022-08-14T02:00:45;9.07;;;7.10;;
35326;SDS011;21436;52.348;20.928;2022-08-14T02:03:22;11.02;;;7.90;;
35326;SDS011;21436;52.348;20.928;2022-08-14T02:06:00;11.70;;;7.03;;
35326;SDS011;21436;52.348;20.928;2022-08-14T02:08:49;10.07;;;6.63;;
35326;SDS011;21436;52.348;20.928;2022-08-14T02:11:22;12.18;;;7.03;;
35326;SDS011;21436;52.348;20.928;2022-08-14T02:13:59;8.88;;;7.22;;
35326;SDS011;21436;52.348;20.928;2022-08-14T02:16:35;21.23;;;7.65;;
35326;SDS011;21436;52.348;20.928;2022-08-14T02:19:06;8.07;;;6.75;;
35326;SDS011;21436;52.348;20.928;2022-08-14T02:21:36;7.97;;;6.57;;
35326;SDS011;21436;52.348;20.928;2022-08-14T02:24:10;13.45;;;7.07;;
35326;SDS011;21436;52.348;20.928;2022-08-14T02:26:59;10.05;;;6.75;;
35326;SDS011;21436;52.348;20.928;2022-08-14T02:29:47;8.07;;;6.30;;
35326;SDS011;21436;52.348;20.928;2022-08-14T02:32:27;10.45;;;7.00;;
35326;SDS011;21436;52.348;20.928;2022-08-14T02:35:04;10.50;;;7.07;;
35326;SDS011;21436;52.348;20.928;2022-08-14T02:37:41;12.23;;;7.13;;
35326;SDS011;21436;52.348;20.928;2022-08-14T02:40:18;14.77;;;7.35;;
35326;SDS011;21436;52.348;20.928;2022-08-14T02:42:58;16.45;;;7.10;;
35326;SDS011;21436;52.348;20.928;2022-08-14T02:45:28;8.10;;;6.55;;
35326;SDS011;21436;52.348;20.928;2022-08-14T02:48:12;11.35;;;6.88;;
35326;SDS011;21436;52.348;20.928;2022-08-14T02:51:04;10.23;;;7.00;;
35326;SDS011;21436;52.348;20.928;2022-08-14T02:53:35;12.32;;;6.50;;
35326;SDS011;21436;52.348;20.928;2022-08-14T02:56:09;12.18;;;7.35;;
35326;SDS011;21436;52.348;20.928;2022-08-14T02:59:00;12.15;;;7.70;;
35326;SDS011;21436;52.348;20.928;2022-08-14T03:01:32;9.50;;;7.20;;
35326;SDS011;21436;52.348;20.928;2022-08-14T03:04:10;11.77;;;7.43;;
35326;SDS011;21436;52.348;20.928;2022-08-14T03:06:39;12.88;;;7.18;;
35326;SDS011;21436;52.348;20.928;2022-08-14T03:09:29;14.60;;;7.18;;
35326;SDS011;21436;52.348;20.928;2022-08-14T03:12:17;11.68;;;7.97;;
35326;SDS011;21436;52.348;20.928;2022-08-14T03:14:59;8.55;;;6.85;;
35326;SDS011;21436;52.348;20.928;2022-08-14T03:17:42;11.68;;;7.60;;
35326;SDS011;21436;52.348;20.928;2022-08-14T03:20:27;8.35;;;7.55;;
35326;SDS011;21436;52.348;20.928;2022-08-14T03:22:56;18.10;;;8.85;;
35326;SDS011;21436;52.348;20.928;2022-08-14T03:25:26;8.98;;;7.90;;
35326;SDS011;21436;52.348;20.928;2022-08-14T03:27:57;12.98;;;8.50;;
35326;SDS011;21436;52.348;20.928;2022-08-14T03:30:30;13.63;;;8.45;;
35326;SDS011;21436;52.348;20.928;2022-08-14T03:33:06;16.23;;;7.97;;
35326;SDS011;21436;52.348;20.928;2022-08-14T03:35:37;18.73;;;7.70;;
35326;SDS011;21436;52.348;20.928;2022-08-14T03:38:26;10.15;;;7.65;;
35326;SDS011;21436;52.348;20.928;2022-08-14T03:41:18;11.57;;;8.07;;
35326;SDS011;21436;52.348;20.928;2022-08-14T03:43:50;9.68;;;7.32;;
35326;SDS011;21436;52.348;20.928;2022-08-14T03:46:28;13.63;;;8.25;;
35326;SDS011;21436;52.348;20.928;2022-08-14T03:49:19;12.30;;;7.70;;
35326;SDS011;21436;52.348;20.928;2022-08-14T03:51:54;11.20;;;8.93;;
35326;SDS011;21436;52.348;20.928;2022-08-14T03:54:23;9.98;;;7.57;;
35326;SDS011;21436;52.348;20.928;2022-08-14T03:56:51;11.95;;;7.65;;
35326;SDS011;21436;52.348;20.928;2022-08-14T03:59:20;10.93;;;7.10;;
35326;SDS011;21436;52.348;20.928;2022-08-14T04:01:49;12.77;;;7.88;;
35326;SDS011;21436;52.348;20.928;2022-08-14T04:04:29;14.43;;;7.38;;
35326;SDS011;21436;52.348;20.928;2022-08-14T04:06:57;13.25;;;7.82;;
35326;SDS011;21436;52.348;20.928;2022-08-14T04:09:28;16.83;;;7.95;;
35326;SDS011;21436;52.348;20.928;2022-08-14T04:11:56;8.25;;;7.45;;
35326;SDS011;21436;52.348;20.928;2022-08-14T04:14:25;11.25;;;6.93;;
35326;SDS011;21436;52.348;20.928;2022-08-14T04:16:55;11.98;;;7.80;;
35326;SDS011;21436;52.348;20.928;2022-08-14T04:19:23;12.70;;;7.88;;
35326;SDS011;21436;52.348;20.928;2022-08-14T04:22:02;11.73;;;7.95;;
35326;SDS011;21436;52.348;20.928;2022-08-14T04:24:31;12.07;;;7.68;;
35326;SDS011;21436;52.348;20.928;2022-08-14T04:27:08;12.88;;;7.30;;
35326;SDS011;21436;52.348;20.928;2022-08-14T04:29:37;10.50;;;7.43;;
35326;SDS011;21436;52.348;20.928;2022-08-14T04:32:11;14.30;;;7.75;;
35326;SDS011;21436;52.348;20.928;2022-08-14T04:34:59;10.23;;;7.22;;
35326;SDS011;21436;52.348;20.928;2022-08-14T04:37:33;10.30;;;7.43;;
35326;SDS011;21436;52.348;20.928;2022-08-14T04:40:20;9.05;;;6.80;;
35326;SDS011;21436;52.348;20.928;2022-08-14T04:43:07;9.10;;;7.18;;
35326;SDS011;21436;52.348;20.928;2022-08-14T04:46:12;11.98;;;7.93;;
35326;SDS011;21436;52.348;20.928;2022-08-14T04:49:02;11.27;;;6.70;;
35326;SDS011;21436;52.348;20.928;2022-08-14T04:51:34;9.10;;;7.47;;
35326;SDS011;21436;52.348;20.928;2022-08-14T04:54:12;8.35;;;7.30;;
35326;SDS011;21436;52.348;20.928;2022-08-14T04:56:42;10.95;;;7.28;;
35326;SDS011;21436;52.348;20.928;2022-08-14T04:59:11;16.08;;;7.78;;
35326;SDS011;21436;52.348;20.928;2022-08-14T05:01:39;12.73;;;7.93;;
35326;SDS011;21436;52.348;20.928;2022-08-14T05:04:17;13.85;;;8.48;;
35326;SDS011;21436;52.348;20.928;2022-08-14T05:06:52;8.90;;;7.57;;
35326;SDS011;21436;52.348;20.928;2022-08-14T05:09:22;11.57;;;8.15;;
35326;SDS011;21436;52.348;20.928;2022-08-14T05:11:55;11.88;;;7.72;;
35326;SDS011;21436;52.348;20.928;2022-08-14T05:14:43;12.15;;;8.23;;
35326;SDS011;21436;52.348;20.928;2022-08-14T05:17:24;12.15;;;7.53;;
35326;SDS011;21436;52.348;20.928;2022-08-14T05:20:09;10.63;;;7.97;;
35326;SDS011;21436;52.348;20.928;2022-08-14T05:22:58;9.73;;;7.38;;
35326;SDS011;21436;52.348;20.928;2022-08-14T05:25:27;13.13;;;8.30;;
35326;SDS011;21436;52.348;20.928;2022-08-14T05:28:06;12.50;;;8.00;;
35326;SDS011;21436;52.348;20.928;2022-08-14T05:30:42;9.25;;;8.00;;
35326;SDS011;21436;52.348;20.928;2022-08-14T05:33:11;14.20;;;8.85;;
35326;SDS011;21436;52.348;20.928;2022-08-14T05:35:39;15.00;;;8.30;;
35326;SDS011;21436;52.348;20.928;2022-08-14T05:38:09;11.98;;;9.00;;
35326;SDS011;21436;52.348;20.928;2022-08-14T05:40:57;13.55;;;8.60;;
35326;SDS011;21436;52.348;20.928;2022-08-14T05:43:25;11.63;;;8.32;;
35326;SDS011;21436;52.348;20.928;2022-08-14T05:46:09;14.35;;;8.07;;
35326;SDS011;21436;52.348;20.928;2022-08-14T05:48:42;12.27;;;8.77;;
35326;SDS011;21436;52.348;20.928;2022-08-14T05:51:11;12.23;;;9.48;;
35326;SDS011;21436;52.348;20.928;2022-08-14T05:53:39;15.75;;;10.70;;
35326;SDS011;21436;52.348;20.928;2022-08-14T05:56:08;13.07;;;9.15;;
35326;SDS011;21436;52.348;20.928;2022-08-14T05:58:36;15.93;;;9.45;;
35326;SDS011;21436;52.348;20.928;2022-08-14T06:01:07;12.98;;;9.52;;
35326;SDS011;21436;52.348;20.928;2022-08-14T06:03:36;15.65;;;11.15;;
35326;SDS011;21436;52.348;20.928;2022-08-14T06:06:06;13.15;;;9.35;;
35326;SDS011;21436;52.348;20.928;2022-08-14T06:08:36;18.48;;;11.23;;
35326;SDS011;21436;52.348;20.928;2022-08-14T06:11:08;13.90;;;10.03;;
35326;SDS011;21436;52.348;20.928;2022-08-14T06:13:41;14.68;;;9.73;;
35326;SDS011;21436;52.348;20.928;2022-08-14T06:16:15;15.10;;;9.90;;
35326;SDS011;21436;52.348;20.928;2022-08-14T06:18:45;14.68;;;10.35;;
35326;SDS011;21436;52.348;20.928;2022-08-14T06:21:20;12.43;;;9.90;;
35326;SDS011;21436;52.348;20.928;2022-08-14T06:23:48;14.20;;;9.48;;
35326;SDS011;21436;52.348;20.928;2022-08-14T06:26:17;14.43;;;11.15;;
35326;SDS011;21436;52.348;20.928;2022-08-14T06:28:48;15.07;;;10.68;;
35326;SDS011;21436;52.348;20.928;2022-08-14T06:31:19;15.10;;;10.70;;
35326;SDS011;21436;52.348;20.928;2022-08-14T06:33:49;18.55;;;10.77;;
35326;SDS011;21436;52.348;20.928;2022-08-14T06:36:36;19.52;;;11.20;;
35326;SDS011;21436;52.348;20.928;2022-08-14T06:39:06;16.75;;;11.13;;
35326;SDS011;21436;52.348;20.928;2022-08-14T06:41:39;14.50;;;10.90;;
35326;SDS011;21436;52.348;20.928;2022-08-14T06:44:26;17.15;;;11.73;;
35326;SDS011;21436;52.348;20.928;2022-08-14T06:47:02;21.38;;;11.90;;
35326;SDS011;21436;52.348;20.928;2022-08-14T06:49:31;21.90;;;12.05;;
35326;SDS011;21436;52.348;20.928;2022-08-14T06:52:10;15.18;;;11.95;;
35326;SDS011;21436;52.348;20.928;2022-08-14T06:54:43;16.95;;;12.27;;
35326;SDS011;21436;52.348;20.928;2022-08-14T06:57:11;19.83;;;12.88;;
35326;SDS011;21436;52.348;20.928;2022-08-14T06:59:39;20.05;;;13.40;;
35326;SDS011;21436;52.348;20.928;2022-08-14T07:02:08;18.23;;;13.10;;
35326;SDS011;21436;52.348;20.928;2022-08-14T07:04:55;18.63;;;13.00;;
35326;SDS011;21436;52.348;20.928;2022-08-14T07:07:49;15.65;;;13.32;;
35326;SDS011;21436;52.348;20.928;2022-08-14T07:10:17;21.42;;;13.95;;
35326;SDS011;21436;52.348;20.928;2022-08-14T07:12:47;20.23;;;14.00;;
35326;SDS011;21436;52.348;20.928;2022-08-14T07:18:08;18.00;;;13.18;;
35326;SDS011;21436;52.348;20.928;2022-08-14T07:20:37;17.73;;;13.30;;
35326;SDS011;21436;52.348;20.928;2022-08-14T07:23:08;22.00;;;13.48;;
35326;SDS011;21436;52.348;20.928;2022-08-14T07:25:47;20.88;;;14.48;;
35326;SDS011;21436;52.348;20.928;2022-08-14T07:28:37;18.88;;;13.13;;
35326;SDS011;21436;52.348;20.928;2022-08-14T07:31:10;21.30;;;14.60;;
35326;SDS011;21436;52.348;20.928;2022-08-14T07:33:39;18.13;;;14.35;;
35326;SDS011;21436;52.348;20.928;2022-08-14T07:36:19;17.65;;;13.82;;
35326;SDS011;21436;52.348;20.928;2022-08-14T07:38:59;17.52;;;13.05;;
35326;SDS011;21436;52.348;20.928;2022-08-14T07:41:39;17.67;;;13.20;;
35326;SDS011;21436;52.348;20.928;2022-08-14T07:44:08;15.77;;;13.65;;
35326;SDS011;21436;52.348;20.928;2022-08-14T07:46:58;18.52;;;14.35;;
35326;SDS011;21436;52.348;20.928;2022-08-14T07:49:26;21.63;;;13.95;;
35326;SDS011;21436;52.348;20.928;2022-08-14T07:51:54;18.13;;;13.75;;
35326;SDS011;21436;52.348;20.928;2022-08-14T07:54:25;22.25;;;14.60;;
35326;SDS011;21436;52.348;20.928;2022-08-14T07:56:59;19.10;;;14.68;;
35326;SDS011;21436;52.348;20.928;2022-08-14T07:59:39;20.35;;;13.95;;
35326;SDS011;21436;52.348;20.928;2022-08-14T08:02:14;22.77;;;15.13;;
35326;SDS011;21436;52.348;20.928;2022-08-14T08:04:48;23.48;;;13.60;;
35326;SDS011;21436;52.348;20.928;2022-08-14T08:07:21;20.85;;;13.82;;
35326;SDS011;21436;52.348;20.928;2022-08-14T08:09:57;21.15;;;13.98;;
35326;SDS011;21436;52.348;20.928;2022-08-14T08:12:28;18.83;;;13.93;;
35326;SDS011;21436;52.348;20.928;2022-08-14T08:14:59;18.48;;;13.60;;
35326;SDS011;21436;52.348;20.928;2022-08-14T08:20:05;19.08;;;14.50;;
35326;SDS011;21436;52.348;20.928;2022-08-14T08:22:41;19.45;;;14.00;;
35326;SDS011;21436;52.348;20.928;2022-08-14T08:25:14;18.50;;;14.00;;
35326;SDS011;21436;52.348;20.928;2022-08-14T08:30:55;16.83;;;13.35;;
35326;SDS011;21436;52.348;20.928;2022-08-14T08:33:30;19.85;;;13.50;;
35326;SDS011;21436;52.348;20.928;2022-08-14T08:36:04;20.13;;;13.35;;
35326;SDS011;21436;52.348;20.928;2022-08-14T08:38:38;21.65;;;14.98;;
35326;SDS011;21436;52.348;20.928;2022-08-14T08:41:37;19.00;;;13.73;;
35326;SDS011;21436;52.348;20.928;2022-08-14T08:44:16;18.92;;;14.40;;
35326;SDS011;21436;52.348;20.928;2022-08-14T08:47:00;16.42;;;13.30;;
35326;SDS011;21436;52.348;20.928;2022-08-14T08:49:40;17.52;;;14.18;;
35326;SDS011;21436;52.348;20.928;2022-08-14T08:52:26;17.05;;;13.30;;
35326;SDS011;21436;52.348;20.928;2022-08-14T08:54:58;17.10;;;12.63;;
35326;SDS011;21436;52.348;20.928;2022-08-14T08:57:34;17.67;;;13.77;;
35326;SDS011;21436;52.348;20.928;2022-08-14T09:02:54;16.77;;;13.65;;
35326;SDS011;21436;52.348;20.928;2022-08-14T09:05:24;15.10;;;13.10;;
35326;SDS011;21436;52.348;20.928;2022-08-14T09:07:52;19.25;;;13.40;;
35326;SDS011;21436;52.348;20.928;2022-08-14T09:10:22;17.85;;;13.27;;
35326;SDS011;21436;52.348;20.928;2022-08-14T09:12:53;19.73;;;13.85;;
35326;SDS011;21436;52.348;20.928;2022-08-14T09:15:22;19.60;;;12.93;;
35326;SDS011;21436;52.348;20.928;2022-08-14T09:17:50;19.55;;;13.23;;
35326;SDS011;21436;52.348;20.928;2022-08-14T09:20:20;18.98;;;14.13;;
35326;SDS011;21436;52.348;20.928;2022-08-14T09:22:57;16.92;;;12.68;;
35326;SDS011;21436;52.348;20.928;2022-08-14T09:25:25;17.70;;;13.75;;
35326;SDS011;21436;52.348;20.928;2022-08-14T09:28:13;20.45;;;13.32;;
35326;SDS011;21436;52.348;20.928;2022-08-14T09:30:47;20.50;;;13.52;;
35326;SDS011;21436;52.348;20.928;2022-08-14T09:39:43;21.08;;;13.27;;
35326;SDS011;21436;52.348;20.928;2022-08-14T09:45:19;22.15;;;13.63;;
35326;SDS011;21436;52.348;20.928;2022-08-14T09:47:51;16.75;;;12.55;;
35326;SDS011;21436;52.348;20.928;2022-08-14T09:50:21;17.83;;;12.88;;
35326;SDS011;21436;52.348;20.928;2022-08-14T09:56:25;18.05;;;13.65;;
35326;SDS011;21436;52.348;20.928;2022-08-14T09:58:57;20.02;;;13.07;;
35326;SDS011;21436;52.348;20.928;2022-08-14T10:01:42;18.08;;;13.55;;
35326;SDS011;21436;52.348;20.928;2022-08-14T10:04:22;18.95;;;12.95;;
35326;SDS011;21436;52.348;20.928;2022-08-14T10:07:04;21.48;;;13.90;;
35326;SDS011;21436;52.348;20.928;2022-08-14T10:09:45;18.98;;;13.75;;
35326;SDS011;21436;52.348;20.928;2022-08-14T10:12:40;16.45;;;13.35;;
35326;SDS011;21436;52.348;20.928;2022-08-14T10:15:14;19.45;;;13.70;;
35326;SDS011;21436;52.348;20.928;2022-08-14T10:20:52;17.23;;;13.10;;
35326;SDS011;21436;52.348;20.928;2022-08-14T10:23:26;20.35;;;13.50;;
35326;SDS011;21436;52.348;20.928;2022-08-14T10:26:06;19.83;;;13.40;;
35326;SDS011;21436;52.348;20.928;2022-08-14T10:28:49;19.23;;;13.68;;
35326;SDS011;21436;52.348;20.928;2022-08-14T10:31:37;17.20;;;13.38;;
35326;SDS011;21436;52.348;20.928;2022-08-14T10:34:12;22.75;;;14.63;;
35326;SDS011;21436;52.348;20.928;2022-08-14T10:36:44;24.92;;;13.75;;
35326;SDS011;21436;52.348;20.928;2022-08-14T10:39:28;20.65;;;13.63;;
35326;SDS011;21436;52.348;20.928;2022-08-14T10:42:02;20.15;;;15.43;;
35326;SDS011;21436;52.348;20.928;2022-08-14T10:44:47;22.60;;;13.95;;
35326;SDS011;21436;52.348;20.928;2022-08-14T10:47:18;15.43;;;12.95;;
35326;SDS011;21436;52.348;20.928;2022-08-14T10:50:06;19.67;;;13.52;;
35326;SDS011;21436;52.348;20.928;2022-08-14T10:52:40;21.40;;;14.82;;
35326;SDS011;21436;52.348;20.928;2022-08-14T10:57:54;20.02;;;13.27;;
35326;SDS011;21436;52.348;20.928;2022-08-14T11:00:24;16.52;;;13.82;;
35326;SDS011;21436;52.348;20.928;2022-08-14T11:05:41;17.98;;;13.52;;
35326;SDS011;21436;52.348;20.928;2022-08-14T11:08:13;23.85;;;14.18;;
35326;SDS011;21436;52.348;20.928;2022-08-14T11:13:29;20.95;;;14.40;;
35326;SDS011;21436;52.348;20.928;2022-08-14T11:15:59;18.65;;;14.23;;
35326;SDS011;21436;52.348;20.928;2022-08-14T11:18:28;21.70;;;14.30;;
35326;SDS011;21436;52.348;20.928;2022-08-14T11:21:06;20.95;;;14.13;;
35326;SDS011;21436;52.348;20.928;2022-08-14T11:23:37;17.75;;;13.50;;
35326;SDS011;21436;52.348;20.928;2022-08-14T11:26:11;19.52;;;13.82;;
35326;SDS011;21436;52.348;20.928;2022-08-14T11:28:40;18.88;;;14.60;;
35326;SDS011;21436;52.348;20.928;2022-08-14T11:31:24;18.83;;;13.85;;
35326;SDS011;21436;52.348;20.928;2022-08-14T11:33:52;19.45;;;14.23;;
35326;SDS011;21436;52.348;20.928;2022-08-14T11:36:23;16.42;;;13.48;;
35326;SDS011;21436;52.348;20.928;2022-08-14T11:39:20;18.85;;;13.93;;
35326;SDS011;21436;52.348;20.928;2022-08-14T11:42:03;20.80;;;14.48;;
35326;SDS011;21436;52.348;20.928;2022-08-14T11:44:53;17.60;;;13.70;;
35326;SDS011;21436;52.348;20.928;2022-08-14T11:47:27;20.45;;;14.10;;
35326;SDS011;21436;52.348;20.928;2022-08-14T11:52:51;16.25;;;13.90;;
35326;SDS011;21436;52.348;20.928;2022-08-14T11:55:32;22.80;;;15.18;;
35326;SDS011;21436;52.348;20.928;2022-08-14T11:58:08;16.45;;;14.18;;
35326;SDS011;21436;52.348;20.928;2022-08-14T12:00:51;17.52;;;14.18;;
35326;SDS011;21436;52.348;20.928;2022-08-14T12:03:20;18.88;;;14.75;;
35326;SDS011;21436;52.348;20.928;2022-08-14T12:06:09;28.75;;;14.32;;
35326;SDS011;21436;52.348;20.928;2022-08-14T12:08:58;18.60;;;14.05;;
35326;SDS011;21436;52.348;20.928;2022-08-14T12:11:35;17.83;;;14.38;;
35326;SDS011;21436;52.348;20.928;2022-08-14T12:14:10;19.27;;;15.05;;
35326;SDS011;21436;52.348;20.928;2022-08-14T12:17:00;17.13;;;14.63;;
35326;SDS011;21436;52.348;20.928;2022-08-14T12:19:41;19.95;;;15.23;;
35326;SDS011;21436;52.348;20.928;2022-08-14T12:22:11;17.92;;;15.13;;
35326;SDS011;21436;52.348;20.928;2022-08-14T12:24:55;17.60;;;14.25;;
35326;SDS011;21436;52.348;20.928;2022-08-14T12:27:33;23.38;;;14.52;;
35326;SDS011;21436;52.348;20.928;2022-08-14T12:30:25;19.23;;;14.55;;
35326;SDS011;21436;52.348;20.928;2022-08-14T12:33:22;19.15;;;13.60;;
35326;SDS011;21436;52.348;20.928;2022-08-14T12:36:01;18.83;;;13.90;;
35326;SDS011;21436;52.348;20.928;2022-08-14T12:38:33;21.92;;;14.27;;
35326;SDS011;21436;52.348;20.928;2022-08-14T12:41:14;19.88;;;13.73;;
35326;SDS011;21436;52.348;20.928;2022-08-14T12:46:28;15.98;;;14.07;;
35326;SDS011;21436;52.348;20.928;2022-08-14T12:48:57;19.20;;;14.23;;
35326;SDS011;21436;52.348;20.928;2022-08-14T12:51:29;17.70;;;13.60;;
35326;SDS011;21436;52.348;20.928;2022-08-14T12:53:57;19.17;;;14.95;;
35326;SDS011;21436;52.348;20.928;2022-08-14T12:56:26;20.35;;;14.73;;
35326;SDS011;21436;52.348;20.928;2022-08-14T12:59:00;21.42;;;14.98;;
35326;SDS011;21436;52.348;20.928;2022-08-14T13:01:30;24.98;;;14.75;;
35326;SDS011;21436;52.348;20.928;2022-08-14T13:04:18;19.33;;;14.48;;
35326;SDS011;21436;52.348;20.928;2022-08-14T13:06:48;18.23;;;14.75;;
35326;SDS011;21436;52.348;20.928;2022-08-14T13:09:17;18.67;;;14.23;;
35326;SDS011;21436;52.348;20.928;2022-08-14T13:11:47;18.15;;;14.50;;
35326;SDS011;21436;52.348;20.928;2022-08-14T13:14:37;23.95;;;14.55;;
35326;SDS011;21436;52.348;20.928;2022-08-14T13:17:08;18.75;;;14.50;;
35326;SDS011;21436;52.348;20.928;2022-08-14T13:19:38;16.40;;;14.02;;
35326;SDS011;21436;52.348;20.928;2022-08-14T13:22:06;19.67;;;15.50;;
35326;SDS011;21436;52.348;20.928;2022-08-14T13:24:45;20.50;;;14.57;;
35326;SDS011;21436;52.348;20.928;2022-08-14T13:27:13;19.50;;;14.20;;
35326;SDS011;21436;52.348;20.928;2022-08-14T13:29:44;19.48;;;14.30;;
35326;SDS011;21436;52.348;20.928;2022-08-14T13:32:13;18.20;;;13.68;;
35326;SDS011;21436;52.348;20.928;2022-08-14T13:34:42;18.85;;;13.80;;
35326;SDS011;21436;52.348;20.928;2022-08-14T13:37:14;18.65;;;13.38;;
35326;SDS011;21436;52.348;20.928;2022-08-14T13:39:46;18.88;;;13.02;;
35326;SDS011;21436;52.348;20.928;2022-08-14T13:42:24;15.95;;;11.68;;
35326;SDS011;21436;52.348;20.928;2022-08-14T13:44:58;14.98;;;12.77;;
35326;SDS011;21436;52.348;20.928;2022-08-14T13:47:29;20.63;;;12.45;;
35326;SDS011;21436;52.348;20.928;2022-08-14T13:49:59;17.27;;;11.77;;
35326;SDS011;21436;52.348;20.928;2022-08-14T13:52:40;16.77;;;12.65;;
35326;SDS011;21436;52.348;20.928;2022-08-14T13:55:22;18.80;;;12.07;;
35326;SDS011;21436;52.348;20.928;2022-08-14T13:57:58;19.38;;;12.60;;
35326;SDS011;21436;52.348;20.928;2022-08-14T14:00:31;22.92;;;15.15;;
35326;SDS011;21436;52.348;20.928;2022-08-14T14:03:18;17.00;;;11.85;;
35326;SDS011;21436;52.348;20.928;2022-08-14T14:05:49;18.23;;;12.73;;
35326;SDS011;21436;52.348;20.928;2022-08-14T14:08:21;19.52;;;13.88;;
35326;SDS011;21436;52.348;20.928;2022-08-14T14:11:11;16.00;;;13.07;;
35326;SDS011;21436;52.348;20.928;2022-08-14T14:13:42;17.67;;;11.90;;
35326;SDS011;21436;52.348;20.928;2022-08-14T14:16:13;14.40;;;11.15;;
35326;SDS011;21436;52.348;20.928;2022-08-14T14:18:53;13.13;;;11.73;;
35326;SDS011;21436;52.348;20.928;2022-08-14T14:21:24;15.35;;;12.20;;
35326;SDS011;21436;52.348;20.928;2022-08-14T14:23:55;15.02;;;11.75;;
35326;SDS011;21436;52.348;20.928;2022-08-14T14:26:24;15.65;;;11.23;;
35326;SDS011;21436;52.348;20.928;2022-08-14T14:28:56;13.27;;;10.85;;
35326;SDS011;21436;52.348;20.928;2022-08-14T14:31:25;12.77;;;10.00;;
35326;SDS011;21436;52.348;20.928;2022-08-14T14:33:58;15.27;;;11.75;;
35326;SDS011;21436;52.348;20.928;2022-08-14T14:36:33;16.10;;;11.85;;
35326;SDS011;21436;52.348;20.928;2022-08-14T14:39:03;14.70;;;11.70;;
35326;SDS011;21436;52.348;20.928;2022-08-14T14:41:34;17.45;;;12.23;;
35326;SDS011;21436;52.348;20.928;2022-08-14T14:44:10;14.40;;;11.45;;
35326;SDS011;21436;52.348;20.928;2022-08-14T14:46:41;18.13;;;12.07;;
35326;SDS011;21436;52.348;20.928;2022-08-14T14:49:20;18.77;;;12.05;;
35326;SDS011;21436;52.348;20.928;2022-08-14T14:52:08;18.77;;;12.38;;
35326;SDS011;21436;52.348;20.928;2022-08-14T14:54:49;16.25;;;12.48;;
35326;SDS011;21436;52.348;20.928;2022-08-14T14:57:18;16.25;;;12.02;;
35326;SDS011;21436;52.348;20.928;2022-08-14T14:59:46;14.93;;;11.48;;
35326;SDS011;21436;52.348;20.928;2022-08-14T15:02:24;17.25;;;12.60;;
35326;SDS011;21436;52.348;20.928;2022-08-14T15:04:56;14.13;;;11.95;;
35326;SDS011;21436;52.348;20.928;2022-08-14T15:07:23;15.50;;;12.05;;
35326;SDS011;21436;52.348;20.928;2022-08-14T15:09:56;16.05;;;12.70;;
35326;SDS011;21436;52.348;20.928;2022-08-14T15:12:26;18.67;;;11.40;;
35326;SDS011;21436;52.348;20.928;2022-08-14T15:15:15;16.95;;;10.70;;
35326;SDS011;21436;52.348;20.928;2022-08-14T15:17:44;16.55;;;10.65;;
35326;SDS011;21436;52.348;20.928;2022-08-14T15:20:13;21.15;;;11.00;;
35326;SDS011;21436;52.348;20.928;2022-08-14T15:22:46;20.23;;;10.35;;
35326;SDS011;21436;52.348;20.928;2022-08-14T15:25:17;23.45;;;10.38;;
35326;SDS011;21436;52.348;20.928;2022-08-14T15:27:50;18.73;;;10.82;;
35326;SDS011;21436;52.348;20.928;2022-08-14T15:30:20;14.80;;;10.35;;
35326;SDS011;21436;52.348;20.928;2022-08-14T15:32:51;22.50;;;10.88;;
35326;SDS011;21436;52.348;20.928;2022-08-14T15:35:19;18.75;;;11.18;;
35326;SDS011;21436;52.348;20.928;2022-08-14T15:37:51;21.65;;;11.18;;
35326;SDS011;21436;52.348;20.928;2022-08-14T15:40:22;20.02;;;10.70;;
35326;SDS011;21436;52.348;20.928;2022-08-14T15:42:50;20.33;;;10.63;;
35326;SDS011;21436;52.348;20.928;2022-08-14T15:45:19;17.77;;;10.93;;